createdAt,value
2023-02-25T00:03:19.569Z,99135.75
2023-02-25T00:08:21.446Z,99134.84
2023-02-25T00:13:24.472Z,99138.31
2023-02-25T00:18:26.353Z,99139.16
2023-02-25T00:23:28.500Z,99140.91
2023-02-25T00:28:31.611Z,99145.19
2023-02-25T00:33:33.299Z,99146.94
2023-02-25T00:38:36.203Z,99150.41
2023-02-25T00:43:39.909Z,99147.81
2023-02-25T00:48:42.117Z,99159.91
2023-02-25T00:53:44.032Z,99164.19
2023-02-25T00:58:48.341Z,99163.34
2023-02-25T01:03:50.969Z,99169.34
2023-02-25T01:08:52.936Z,99178.81
2023-02-25T01:13:56.142Z,99183.97
2023-02-25T01:18:59.888Z,99188.31
2023-02-25T01:24:03.902Z,99193.38
2023-02-25T01:29:08.294Z,99189.00
2023-02-25T01:34:12.563Z,99190.72
2023-02-25T01:39:15.825Z,99195.88
2023-02-25T01:44:19.980Z,99207.00
2023-02-25T01:49:22.959Z,99223.31
2023-02-25T01:54:24.633Z,99224.13
2023-02-25T01:59:28.808Z,99234.38
2023-02-25T02:04:30.533Z,99255.03
2023-02-25T02:09:32.198Z,99244.72
2023-02-25T02:14:39.034Z,99242.94
2023-02-25T02:19:55.973Z,99242.03
2023-02-25T02:25:31.338Z,99246.31
2023-02-25T02:30:46.447Z,99247.19
2023-02-25T02:35:51.733Z,99260.09
2023-02-25T02:40:57.459Z,99252.41
2023-02-25T02:46:03.259Z,99262.72
2023-02-25T02:51:10.365Z,99267.00
2023-02-25T02:56:12.909Z,99273.94
2023-02-25T03:01:17.106Z,99284.19
2023-02-25T03:06:23.608Z,99293.72
2023-02-25T03:11:26.739Z,99290.22
2023-02-25T03:16:31.075Z,99293.66
2023-02-25T03:21:36.313Z,99292.00
2023-02-25T03:26:38.242Z,99293.72
2023-02-25T03:31:42.452Z,99303.19
2023-02-25T03:36:47.905Z,99323.84
2023-02-25T03:41:52.171Z,99327.28
2023-02-25T03:46:53.870Z,99335.91
2023-02-25T03:51:57.793Z,99343.63
2023-02-25T03:56:59.519Z,99351.34
2023-02-25T04:02:02.069Z,99349.50
2023-02-25T04:07:05.234Z,99352.09
2023-02-25T04:12:08.076Z,99374.53
2023-02-25T04:17:13.086Z,99377.19
2023-02-25T04:22:17.150Z,99382.34
2023-02-25T04:27:18.900Z,99385.66
2023-02-25T04:32:20.643Z,99391.72
2023-02-25T04:37:23.752Z,99397.72
2023-02-25T04:42:25.518Z,99401.16
2023-02-25T04:47:27.223Z,99407.16
2023-02-25T04:52:30.243Z,99397.56
2023-02-25T04:57:31.949Z,99418.19
2023-02-25T05:02:34.235Z,99425.00
2023-02-25T05:07:37.311Z,99427.59
2023-02-25T05:12:38.960Z,99430.16
2023-02-25T05:17:40.689Z,99430.94
2023-02-25T05:22:43.740Z,99438.59
2023-02-25T05:27:45.397Z,99441.19
2023-02-25T05:32:47.210Z,99444.56
2023-02-25T05:37:50.277Z,99456.69
2023-02-25T05:42:51.973Z,99463.44
2023-02-25T05:47:53.649Z,99468.72
2023-02-25T05:52:56.785Z,99476.34
2023-02-25T05:57:58.461Z,99472.13
2023-02-25T06:03:00.212Z,99484.09
2023-02-25T06:08:03.258Z,99487.47
2023-02-25T06:13:05.104Z,99501.28
2023-02-25T06:18:06.842Z,99508.09
2023-02-25T06:23:09.868Z,99528.75
2023-02-25T06:28:11.546Z,99538.13
2023-02-25T06:33:13.719Z,99546.00
2023-02-25T06:38:16.741Z,99550.22
2023-02-25T06:43:18.722Z,99561.41
2023-02-25T06:48:20.457Z,99560.56
2023-02-25T06:53:24.306Z,99575.97
2023-02-25T06:58:26.052Z,99580.25
2023-02-25T07:03:27.769Z,99585.38
2023-02-25T07:08:31.133Z,99592.22
2023-02-25T07:13:32.777Z,99600.91
2023-02-25T07:18:34.461Z,99610.44
2023-02-25T07:23:37.569Z,99607.03
2023-02-25T07:28:39.299Z,99620.03
2023-02-25T07:33:41.783Z,99616.59
2023-02-25T07:38:45.086Z,99627.88
2023-02-25T07:43:46.761Z,99643.22
2023-02-25T07:48:48.741Z,99649.38
2023-02-25T07:53:52.268Z,99647.84
2023-02-25T07:58:54.018Z,99653.13
2023-02-25T08:03:56.824Z,99655.91
2023-02-25T08:08:59.806Z,99662.03
2023-02-25T08:14:02.050Z,99663.75
2023-02-25T08:19:04.045Z,99664.47
2023-02-25T08:24:08.069Z,99671.44
2023-02-25T08:29:09.724Z,99671.66
2023-02-25T08:34:12.074Z,99672.63
2023-02-25T08:39:15.066Z,99683.78
2023-02-25T08:44:19.820Z,99679.75
2023-02-25T08:49:21.902Z,99688.34
2023-02-25T08:54:24.863Z,99696.97
2023-02-25T08:59:26.548Z,99709.00
2023-02-25T09:04:28.259Z,99713.44
2023-02-25T09:09:31.833Z,99726.47
2023-02-25T09:14:34.959Z,99722.91
2023-02-25T09:19:38.730Z,99743.03
2023-02-25T09:24:41.720Z,99738.34
2023-02-25T09:29:43.607Z,99759.75
2023-02-25T09:34:45.319Z,99777.06
2023-02-25T09:39:48.332Z,99787.50
2023-02-25T09:44:50.879Z,99786.56
2023-02-25T09:49:55.364Z,99788.41
2023-02-25T09:55:00.788Z,99806.75
2023-02-25T10:00:07.102Z,99803.13
2023-02-25T10:05:21.626Z,99818.16
2023-02-25T10:10:27.153Z,99816.16
2023-02-25T10:15:33.512Z,99823.53
2023-02-25T10:20:40.192Z,99820.97
2023-02-25T10:25:45.539Z,99843.53
2023-02-25T10:30:49.061Z,99837.28
2023-02-25T10:35:52.347Z,99840.09
2023-02-25T10:40:56.626Z,99856.38
2023-02-25T10:46:00.717Z,99857.53
2023-02-25T10:51:05.791Z,99872.19
2023-02-25T10:56:08.864Z,99873.16
2023-02-25T11:01:15.534Z,99890.81
2023-02-25T11:06:21.180Z,99891.25
2023-02-25T11:11:26.836Z,99885.63
2023-02-25T11:16:29.061Z,99892.19
2023-02-25T11:21:33.049Z,99908.53
2023-02-25T11:26:37.870Z,99932.28
2023-02-25T11:31:40.775Z,99926.78
2023-02-25T11:36:42.714Z,99938.94
2023-02-25T11:41:46.415Z,99927.25
2023-02-25T11:46:54.367Z,99934.88
2023-02-25T11:51:59.656Z,99945.69
2023-02-25T11:57:05.292Z,99945.16
2023-02-25T12:02:20.520Z,99958.69
2023-02-25T12:08:05.141Z,99967.06
2023-02-25T12:13:46.650Z,99984.69
2023-02-25T12:19:20.565Z,99987.31
2023-02-25T12:24:40.645Z,99995.03
2023-02-25T12:30:00.404Z,99987.47
2023-02-25T12:35:34.567Z,99995.22
2023-02-25T12:40:47.717Z,99993.09
2023-02-25T12:46:04.251Z,99991.50
2023-02-25T12:51:14.749Z,100008.88
2023-02-25T12:56:35.546Z,99992.91
2023-02-25T13:02:01.890Z,100015.03
2023-02-25T13:07:30.717Z,100029.13
2023-02-25T13:12:53.819Z,100041.47
2023-02-25T13:18:09.737Z,100057.19
2023-02-25T13:23:21.016Z,100055.97
2023-02-25T13:28:29.549Z,100066.34
2023-02-25T13:33:42.395Z,100069.13
2023-02-25T13:39:02.709Z,100066.72
2023-02-25T13:44:19.320Z,100064.50
2023-02-25T13:49:57.761Z,100074.97
2023-02-25T13:55:10.000Z,100074.97
2023-02-25T14:00:39.030Z,100090.97
2023-02-25T14:06:17.830Z,100097.22
2023-02-25T14:11:28.980Z,100095.81
2023-02-25T14:16:49.418Z,100106.47
2023-02-25T14:22:12.227Z,100106.94
2023-02-25T14:27:20.708Z,100105.53
2023-02-25T14:32:34.266Z,100111.91
2023-02-25T14:37:38.485Z,100114.59
2023-02-25T14:42:54.067Z,100120.44
2023-02-25T14:47:57.807Z,100128.72
2023-02-25T14:53:08.468Z,100149.19
2023-02-25T14:58:39.004Z,100149.09
2023-02-25T15:04:14.301Z,100160.81
2023-02-25T15:09:35.950Z,100163.81
2023-02-25T15:14:47.908Z,100181.09
2023-02-25T15:20:00.785Z,100191.50
2023-02-25T15:25:36.859Z,100212.84
2023-02-25T15:31:07.942Z,100215.34
2023-02-25T15:36:27.537Z,100226.47
2023-02-25T15:41:54.721Z,100226.22
2023-02-25T15:47:11.304Z,100234.56
2023-02-25T15:52:13.414Z,100252.47
2023-02-25T15:57:39.041Z,100266.03
2023-02-25T16:02:40.997Z,100264.09
2023-02-25T16:07:44.280Z,100282.22
2023-02-25T16:12:48.162Z,100281.00
2023-02-25T16:17:49.874Z,100275.59
2023-02-25T16:22:53.469Z,100288.38
2023-02-25T16:27:57.909Z,100302.13
2023-02-25T16:33:01.949Z,100326.25
2023-02-25T16:38:07.800Z,100331.34
2023-02-25T16:43:13.426Z,100337.53
2023-02-25T16:48:18.526Z,100341.53
2023-02-25T16:53:21.312Z,100364.69
2023-02-25T16:58:25.059Z,100361.09
2023-02-25T17:03:27.878Z,100370.34
2023-02-25T17:08:29.542Z,100369.28
2023-02-25T17:13:34.264Z,100385.66
2023-02-25T17:18:37.878Z,100392.25
2023-02-25T17:23:40.109Z,100402.47
2023-02-25T17:28:43.981Z,100401.00
2023-02-25T17:33:47.237Z,100413.97
2023-02-25T17:38:49.884Z,100424.19
2023-02-25T17:43:52.896Z,100427.88
2023-02-25T17:48:55.695Z,100432.19
2023-02-25T17:53:58.231Z,100441.59
2023-02-25T17:59:03.432Z,100448.56
2023-02-25T18:04:05.579Z,100456.09
2023-02-25T18:09:27.517Z,100455.63
2023-02-25T18:14:34.104Z,100463.91
2023-02-25T18:19:37.677Z,100465.34
2023-02-25T18:24:39.388Z,100469.28
2023-02-25T18:29:42.544Z,100476.09
2023-02-25T18:34:44.345Z,100480.41
2023-02-25T18:39:46.622Z,100489.88
2023-02-25T18:44:50.055Z,100496.50
2023-02-25T18:49:51.812Z,100501.44
2023-02-25T18:54:53.506Z,100512.25
2023-02-25T18:59:56.528Z,100512.97
2023-02-25T19:04:58.363Z,100513.59
2023-02-25T19:10:00.136Z,100523.53
2023-02-25T19:15:04.880Z,100526.03
2023-02-25T19:20:08.208Z,100525.91
2023-02-25T19:25:14.175Z,100529.97
2023-02-25T19:30:18.005Z,100526.63
2023-02-25T19:35:19.820Z,100534.59
2023-02-25T19:40:21.749Z,100557.94
2023-02-25T19:45:25.102Z,100563.69
2023-02-25T19:50:27.052Z,100553.22
2023-02-25T19:55:28.827Z,100567.88
2023-02-25T20:00:32.047Z,100581.66
2023-02-25T20:05:34.756Z,100572.91
2023-02-25T20:10:36.474Z,100576.13
2023-02-25T20:15:39.552Z,100585.47
2023-02-25T20:20:41.646Z,100593.28
2023-02-25T20:25:43.391Z,100601.06
2023-02-25T20:30:46.448Z,100603.47
2023-02-25T20:35:48.890Z,100607.22
2023-02-25T20:40:50.744Z,100611.25
2023-02-25T20:45:54.117Z,100611.13
2023-02-25T20:50:56.185Z,100614.47
2023-02-25T20:55:58.008Z,100621.66
2023-02-25T21:01:01.147Z,100627.63
2023-02-25T21:06:02.899Z,100627.63
2023-02-25T21:11:04.849Z,100642.69
2023-02-25T21:16:08.169Z,100643.19
2023-02-25T21:21:09.969Z,100651.50
2023-02-25T21:26:11.779Z,100648.69
2023-02-25T21:31:15.651Z,100662.81
2023-02-25T21:36:17.621Z,100664.00
2023-02-25T21:41:19.423Z,100670.84
2023-02-25T21:46:22.663Z,100671.06
2023-02-25T21:51:25.473Z,100685.47
2023-02-25T21:56:27.949Z,100692.38
2023-02-25T22:01:31.929Z,100704.38
2023-02-25T22:06:33.738Z,100714.81
2023-02-25T22:11:36.306Z,100714.81
2023-02-25T22:16:39.979Z,100713.59
2023-02-25T22:21:41.699Z,100707.16
2023-02-25T22:26:45.681Z,100716.50
2023-02-25T22:31:49.025Z,100717.38
2023-02-25T22:36:50.842Z,100726.84
2023-02-25T22:41:52.623Z,100729.28
2023-02-25T22:46:55.689Z,100733.53
2023-02-25T22:51:57.383Z,100739.44
2023-02-25T22:56:59.144Z,100746.91
2023-02-25T23:02:02.752Z,100762.28
2023-02-25T23:07:04.441Z,100764.84
2023-02-25T23:12:06.146Z,100775.19
2023-02-25T23:17:10.022Z,100779.34
2023-02-25T23:22:19.087Z,100784.13
2023-02-25T23:27:20.771Z,100796.63
2023-02-25T23:32:23.869Z,100805.06
2023-02-25T23:37:25.573Z,100813.00
2023-02-25T23:42:27.307Z,100819.09
2023-02-25T23:47:30.726Z,100823.81
2023-02-25T23:52:32.459Z,100827.81
2023-02-25T23:57:34.161Z,100833.31
